createdAt,value
2023-03-20T00:00:59.156Z,6.90
2023-03-20T00:03:27.199Z,7.70
2023-03-20T00:05:53.780Z,6.63
2023-03-20T00:08:20.304Z,7.40
2023-03-20T00:10:47.044Z,6.93
2023-03-20T00:13:18.895Z,9.30
2023-03-20T00:15:45.645Z,7.10
2023-03-20T00:18:16.039Z,7.67
2023-03-20T00:20:44.096Z,7.85
2023-03-20T00:23:10.605Z,7.03
2023-03-20T00:25:38.714Z,6.85
2023-03-20T00:28:29.494Z,7.55
2023-03-20T00:30:56.102Z,7.50
2023-03-20T00:33:22.698Z,8.35
2023-03-20T00:35:50.884Z,6.97
2023-03-20T00:38:17.455Z,6.75
2023-03-20T00:40:44.704Z,7.63
2023-03-20T00:43:14.060Z,7.37
2023-03-20T00:45:40.754Z,6.80
2023-03-20T00:48:13.197Z,9.65
2023-03-20T00:50:39.753Z,7.15
2023-03-20T00:53:10.612Z,7.63
2023-03-20T00:55:39.145Z,7.47
2023-03-20T00:58:06.623Z,7.57
2023-03-20T01:00:38.307Z,8.18
2023-03-20T01:03:12.868Z,8.25
2023-03-20T01:05:39.600Z,6.68
2023-03-20T01:08:13.134Z,8.80
2023-03-20T01:10:40.071Z,9.63
2023-03-20T01:13:15.377Z,8.18
2023-03-20T01:15:42.045Z,7.72
2023-03-20T01:18:12.456Z,10.25
2023-03-20T01:20:39.050Z,7.13
2023-03-20T01:23:05.781Z,10.57
2023-03-20T01:25:33.972Z,9.20
2023-03-20T01:28:01.837Z,7.85
2023-03-20T01:30:31.265Z,7.88
2023-03-20T01:33:00.027Z,7.37
2023-03-20T01:35:29.266Z,7.53
2023-03-20T01:37:56.259Z,8.07
2023-03-20T01:40:32.068Z,6.88
2023-03-20T01:43:00.389Z,7.25
2023-03-20T01:45:32.801Z,6.87
2023-03-20T01:47:59.359Z,7.18
2023-03-20T01:50:29.586Z,6.20
2023-03-20T01:53:06.240Z,7.18
2023-03-20T01:55:34.434Z,7.50
2023-03-20T01:58:06.541Z,6.73
2023-03-20T02:00:34.363Z,7.05
2023-03-20T02:03:01.063Z,7.38
2023-03-20T02:05:27.849Z,6.32
2023-03-20T02:08:09.787Z,7.15
2023-03-20T02:10:36.625Z,7.33
2023-03-20T02:13:04.985Z,10.73
2023-03-20T02:15:31.929Z,7.05
2023-03-20T02:17:58.709Z,6.35
2023-03-20T02:20:36.554Z,8.00
2023-03-20T02:23:37.070Z,7.00
2023-03-20T02:26:30.882Z,7.03
2023-03-20T02:29:35.728Z,10.43
2023-03-20T02:32:40.493Z,8.85
2023-03-20T02:35:29.170Z,7.32
2023-03-20T02:38:22.001Z,6.67
2023-03-20T02:40:55.247Z,8.23
2023-03-20T02:43:29.033Z,7.55
2023-03-20T02:46:01.581Z,9.98
2023-03-20T02:48:39.128Z,10.68
2023-03-20T02:51:12.296Z,8.60
2023-03-20T02:53:50.893Z,10.18
2023-03-20T02:56:22.971Z,7.75
2023-03-20T02:58:57.187Z,8.57
2023-03-20T03:01:30.093Z,9.20
2023-03-20T03:04:00.649Z,7.73
2023-03-20T03:06:29.915Z,7.50
2023-03-20T03:09:02.108Z,6.82
2023-03-20T03:11:28.946Z,12.52
2023-03-20T03:13:57.862Z,11.25
2023-03-20T03:16:27.269Z,12.23
2023-03-20T03:19:02.079Z,13.18
2023-03-20T03:21:30.484Z,14.38
2023-03-20T03:23:58.503Z,12.00
2023-03-20T03:26:28.869Z,9.23
2023-03-20T03:28:58.486Z,10.60
2023-03-20T03:31:26.559Z,10.35
2023-03-20T03:33:56.413Z,12.82
2023-03-20T03:36:33.322Z,10.60
2023-03-20T03:39:08.874Z,10.90
2023-03-20T03:41:39.689Z,12.83
2023-03-20T03:44:11.861Z,13.73
2023-03-20T03:46:45.031Z,14.00
2023-03-20T03:49:16.399Z,14.63
2023-03-20T03:51:46.224Z,12.48
2023-03-20T03:54:18.668Z,15.83
2023-03-20T03:56:47.164Z,14.63
2023-03-20T03:59:19.007Z,15.10
2023-03-20T04:01:46.774Z,13.13
2023-03-20T04:04:15.683Z,14.43
2023-03-20T04:06:42.264Z,14.47
2023-03-20T04:09:09.055Z,15.05
2023-03-20T04:11:37.080Z,15.70
2023-03-20T04:14:03.975Z,15.07
2023-03-20T04:16:30.482Z,16.48
2023-03-20T04:18:57.131Z,15.00
2023-03-20T04:21:23.701Z,15.75
2023-03-20T04:23:50.272Z,16.75
2023-03-20T04:26:17.057Z,17.35
2023-03-20T04:28:44.892Z,15.10
2023-03-20T04:31:11.635Z,13.90
2023-03-20T04:33:38.221Z,14.32
2023-03-20T04:36:06.020Z,16.95
2023-03-20T04:38:32.706Z,15.65
2023-03-20T04:40:59.261Z,14.65
2023-03-20T04:43:25.854Z,16.63
2023-03-20T04:45:53.975Z,16.65
2023-03-20T04:48:20.585Z,15.80
2023-03-20T04:50:47.506Z,14.77
2023-03-20T04:53:14.597Z,14.52
2023-03-20T04:55:41.309Z,14.53
2023-03-20T04:58:08.000Z,14.32
2023-03-20T05:00:34.564Z,16.23
2023-03-20T05:03:02.617Z,16.35
2023-03-20T05:05:29.327Z,15.30
2023-03-20T05:07:55.901Z,14.27
2023-03-20T05:10:22.914Z,15.48
2023-03-20T05:12:49.566Z,14.50
2023-03-20T05:15:16.284Z,15.77
2023-03-20T05:17:42.853Z,14.95
2023-03-20T05:20:11.592Z,16.10
2023-03-20T05:22:38.163Z,15.60
2023-03-20T05:25:05.569Z,14.98
2023-03-20T05:27:32.109Z,14.52
2023-03-20T05:29:58.704Z,16.48
2023-03-20T05:32:25.352Z,15.07
2023-03-20T05:34:51.906Z,17.27
2023-03-20T05:37:19.990Z,16.30
2023-03-20T05:39:46.562Z,14.55
2023-03-20T05:42:13.080Z,16.55
2023-03-20T05:44:39.756Z,15.33
2023-03-20T05:47:06.319Z,18.60
2023-03-20T05:49:32.915Z,18.15
2023-03-20T05:51:59.599Z,16.80
2023-03-20T05:54:27.590Z,21.70
2023-03-20T05:56:54.474Z,17.23
2023-03-20T05:59:21.078Z,18.13
2023-03-20T06:01:47.811Z,18.23
2023-03-20T06:04:14.533Z,18.83
2023-03-20T06:06:41.134Z,17.60
2023-03-20T06:09:07.698Z,18.97
2023-03-20T06:11:37.469Z,19.48
2023-03-20T06:14:04.317Z,20.38
2023-03-20T06:16:30.915Z,19.30
2023-03-20T06:18:57.477Z,20.80
2023-03-20T06:21:24.083Z,20.90
2023-03-20T06:23:50.616Z,17.33
2023-03-20T06:26:17.170Z,18.95
2023-03-20T06:28:45.078Z,17.88
2023-03-20T06:31:11.624Z,19.20
2023-03-20T06:33:38.200Z,17.50
2023-03-20T06:36:05.599Z,19.95
2023-03-20T06:38:32.197Z,18.95
2023-03-20T06:40:58.767Z,22.13
2023-03-20T06:43:25.458Z,19.88
2023-03-20T06:45:53.570Z,21.90
2023-03-20T06:48:20.138Z,17.60
2023-03-20T06:50:46.862Z,18.05
2023-03-20T06:53:13.401Z,19.75
2023-03-20T06:55:39.958Z,18.95
2023-03-20T06:58:06.505Z,22.20
2023-03-20T07:00:33.093Z,20.05
2023-03-20T07:03:02.258Z,33.42
2023-03-20T07:05:28.968Z,27.70
2023-03-20T07:07:55.600Z,22.92
2023-03-20T07:10:22.133Z,23.40
2023-03-20T07:12:48.682Z,24.33
2023-03-20T07:15:15.418Z,25.50
2023-03-20T07:17:42.008Z,23.30
2023-03-20T07:20:11.643Z,22.48
2023-03-20T07:22:38.501Z,21.90
2023-03-20T07:25:06.262Z,24.42
2023-03-20T07:27:32.819Z,24.98
2023-03-20T07:29:59.346Z,24.05
2023-03-20T07:32:26.085Z,23.40
2023-03-20T07:34:52.667Z,26.07
2023-03-20T07:37:20.837Z,27.48
2023-03-20T07:39:47.388Z,29.15
2023-03-20T07:42:13.986Z,27.35
2023-03-20T07:44:40.550Z,28.85
2023-03-20T07:47:07.157Z,28.23
2023-03-20T07:49:34.540Z,27.83
2023-03-20T07:52:01.699Z,32.60
2023-03-20T07:54:29.553Z,29.35
2023-03-20T07:56:56.099Z,32.83
2023-03-20T07:59:22.785Z,32.30
2023-03-20T08:01:49.310Z,32.22
2023-03-20T08:04:16.046Z,42.22
2023-03-20T08:06:42.665Z,39.88
2023-03-20T08:09:09.287Z,36.85
2023-03-20T08:11:37.168Z,37.97
2023-03-20T08:14:03.759Z,35.28
2023-03-20T08:16:30.318Z,36.05
2023-03-20T08:18:57.010Z,42.20
2023-03-20T08:21:23.737Z,42.60
2023-03-20T08:23:50.253Z,40.17
2023-03-20T08:26:16.797Z,41.40
2023-03-20T08:28:48.108Z,37.58
2023-03-20T08:31:16.203Z,35.10
2023-03-20T08:33:43.101Z,38.38
2023-03-20T08:36:09.838Z,36.87
2023-03-20T08:38:36.427Z,39.58
2023-03-20T08:41:03.732Z,36.47
2023-03-20T08:43:30.310Z,34.58
2023-03-20T08:45:58.387Z,33.60
2023-03-20T08:48:25.063Z,32.97
2023-03-20T08:50:51.733Z,38.25
2023-03-20T08:53:19.864Z,42.95
2023-03-20T08:55:48.677Z,35.78
2023-03-20T08:58:15.298Z,33.88
2023-03-20T09:00:41.899Z,32.30
2023-03-20T09:03:12.819Z,35.38
2023-03-20T09:05:39.872Z,32.67
2023-03-20T09:08:07.064Z,35.35
2023-03-20T09:10:33.684Z,38.35
2023-03-20T09:13:00.239Z,32.77
2023-03-20T09:15:27.059Z,32.42
2023-03-20T09:17:53.838Z,32.08
2023-03-20T09:20:21.720Z,31.92
2023-03-20T09:22:48.336Z,29.67
2023-03-20T09:25:15.059Z,29.97
2023-03-20T09:27:41.788Z,29.10
2023-03-20T09:30:10.231Z,27.92
2023-03-20T09:32:37.157Z,27.83
2023-03-20T09:35:04.981Z,28.63
2023-03-20T09:37:32.915Z,26.30
2023-03-20T09:39:59.479Z,30.08
2023-03-20T09:42:39.464Z,27.15
2023-03-20T09:45:11.705Z,23.35
2023-03-20T09:47:47.141Z,25.08
2023-03-20T09:50:23.444Z,21.13
2023-03-20T09:52:59.059Z,25.92
2023-03-20T09:55:32.943Z,25.17
2023-03-20T09:58:06.532Z,21.70
2023-03-20T10:00:35.663Z,22.35
2023-03-20T10:03:05.043Z,19.73
2023-03-20T10:05:36.818Z,19.90
2023-03-20T10:08:07.537Z,19.77
2023-03-20T10:10:46.097Z,18.95
2023-03-20T10:13:31.036Z,19.63
2023-03-20T10:16:07.487Z,19.17
2023-03-20T10:18:38.137Z,19.25
2023-03-20T10:21:09.254Z,18.67
2023-03-20T10:23:43.577Z,18.73
2023-03-20T10:26:12.694Z,19.10
2023-03-20T10:28:46.487Z,15.30
2023-03-20T10:31:28.011Z,19.73
2023-03-20T10:34:08.432Z,19.63
2023-03-20T10:36:46.505Z,16.83
2023-03-20T10:39:23.774Z,16.60
2023-03-20T10:41:54.890Z,20.67
2023-03-20T10:44:30.514Z,19.52
2023-03-20T10:47:01.130Z,17.25
2023-03-20T10:49:35.427Z,17.60
2023-03-20T10:52:05.164Z,18.88
2023-03-20T10:54:36.090Z,16.03
2023-03-20T10:57:05.859Z,17.00
2023-03-20T10:59:36.854Z,17.50
2023-03-20T11:02:09.588Z,17.02
2023-03-20T11:04:36.137Z,17.15
2023-03-20T11:07:10.005Z,16.50
2023-03-20T11:09:38.680Z,16.10
2023-03-20T11:12:05.815Z,19.10
2023-03-20T11:14:34.519Z,16.30
2023-03-20T11:17:03.246Z,17.10
2023-03-20T11:19:33.454Z,16.37
2023-03-20T11:22:06.750Z,17.42
2023-03-20T11:24:37.034Z,17.77
2023-03-20T11:27:10.034Z,17.63
2023-03-20T11:29:37.375Z,13.25
2023-03-20T11:32:15.429Z,14.23
2023-03-20T11:34:42.020Z,15.85
2023-03-20T11:37:23.651Z,14.00
2023-03-20T11:39:57.002Z,14.73
2023-03-20T11:42:27.235Z,13.85
2023-03-20T11:44:58.758Z,12.10
2023-03-20T11:47:27.794Z,12.75
2023-03-20T11:49:56.492Z,11.88
2023-03-20T11:52:26.679Z,12.35
2023-03-20T11:54:56.665Z,11.07
2023-03-20T11:57:32.498Z,12.27
2023-03-20T12:00:03.640Z,12.15
2023-03-20T12:02:30.453Z,10.38
2023-03-20T12:05:00.051Z,11.43
2023-03-20T12:07:31.166Z,13.25
2023-03-20T12:10:02.610Z,13.03
2023-03-20T12:12:38.211Z,11.98
2023-03-20T12:15:14.442Z,16.92
2023-03-20T12:17:47.604Z,9.82
2023-03-20T12:20:25.930Z,11.68
2023-03-20T12:23:00.053Z,11.80
2023-03-20T12:25:29.852Z,11.55
2023-03-20T12:28:04.756Z,11.88
2023-03-20T12:30:40.887Z,10.23
2023-03-20T12:33:15.572Z,10.95
2023-03-20T12:35:46.613Z,11.33
2023-03-20T12:38:23.096Z,10.57
2023-03-20T12:40:53.676Z,10.88
2023-03-20T12:43:26.349Z,10.70
2023-03-20T12:46:01.936Z,9.35
2023-03-20T12:48:43.323Z,9.90
2023-03-20T12:51:17.321Z,10.23
2023-03-20T12:53:55.025Z,10.73
2023-03-20T12:56:33.304Z,9.85
2023-03-20T12:59:09.859Z,11.38
2023-03-20T13:01:43.317Z,8.93
2023-03-20T13:04:35.385Z,11.20
2023-03-20T13:07:07.533Z,11.50
2023-03-20T13:10:03.196Z,11.57
2023-03-20T13:12:37.636Z,11.57
2023-03-20T13:15:21.808Z,10.77
2023-03-20T13:17:54.160Z,11.13
2023-03-20T13:20:25.920Z,10.77
2023-03-20T13:23:07.898Z,11.95
2023-03-20T13:25:56.558Z,11.43
2023-03-20T13:28:31.479Z,9.90
2023-03-20T13:31:06.306Z,11.15
2023-03-20T13:33:43.128Z,10.75
2023-03-20T13:36:21.552Z,10.68
2023-03-20T13:38:53.942Z,10.45
2023-03-20T13:41:24.154Z,10.47
2023-03-20T13:43:55.586Z,10.80
2023-03-20T13:46:26.423Z,10.82
2023-03-20T13:48:58.698Z,9.82
2023-03-20T13:51:30.803Z,10.35
2023-03-20T13:54:14.767Z,10.90
2023-03-20T13:56:52.931Z,13.73
2023-03-20T13:59:45.035Z,9.50
2023-03-20T14:02:33.205Z,10.75
2023-03-20T14:05:04.294Z,10.07
2023-03-20T14:07:32.833Z,10.73
2023-03-20T14:10:37.689Z,10.63
2023-03-20T14:13:10.715Z,8.07
2023-03-20T14:15:40.383Z,9.40
2023-03-20T14:18:15.196Z,9.38
2023-03-20T14:20:43.289Z,9.63
2023-03-20T14:23:17.420Z,9.07
2023-03-20T14:25:45.915Z,8.60
2023-03-20T14:28:25.820Z,9.43
2023-03-20T14:31:12.598Z,9.60
2023-03-20T14:33:44.462Z,9.03
2023-03-20T14:36:18.297Z,10.27
2023-03-20T14:38:55.163Z,8.82
2023-03-20T14:41:26.634Z,11.07
2023-03-20T14:44:02.793Z,8.57
2023-03-20T14:46:43.214Z,7.97
2023-03-20T14:49:45.684Z,9.18
2023-03-20T14:52:33.574Z,7.43
2023-03-20T14:55:29.491Z,7.05
2023-03-20T14:57:57.408Z,8.40
2023-03-20T15:00:25.957Z,7.83
2023-03-20T15:02:54.665Z,7.47
2023-03-20T15:05:26.300Z,8.65
2023-03-20T15:07:53.346Z,7.00
2023-03-20T15:10:20.696Z,7.07
2023-03-20T15:12:47.490Z,7.57
2023-03-20T15:15:25.150Z,7.50
2023-03-20T15:17:51.746Z,6.43
2023-03-20T15:20:20.661Z,7.50
2023-03-20T15:22:55.593Z,7.75
2023-03-20T15:25:27.890Z,7.73
2023-03-20T15:27:55.194Z,6.65
2023-03-20T15:30:22.798Z,7.60
2023-03-20T15:32:52.505Z,5.70
2023-03-20T15:35:22.142Z,8.10
2023-03-20T15:37:51.274Z,7.13
2023-03-20T15:40:23.631Z,7.88
2023-03-20T15:42:53.962Z,7.13
2023-03-20T15:45:25.994Z,6.70
2023-03-20T15:47:59.699Z,6.22
2023-03-20T15:50:26.335Z,6.43
2023-03-20T15:52:54.302Z,7.40
2023-03-20T15:55:24.181Z,5.80
2023-03-20T15:57:52.114Z,8.35
2023-03-20T16:00:24.470Z,7.13
2023-03-20T16:02:51.191Z,6.37
2023-03-20T16:05:20.602Z,6.05
2023-03-20T16:07:47.155Z,5.28
2023-03-20T16:10:19.255Z,6.40
2023-03-20T16:12:48.675Z,6.60
2023-03-20T16:15:16.673Z,6.17
2023-03-20T16:17:43.640Z,5.75
2023-03-20T16:20:14.208Z,5.97
2023-03-20T16:22:42.239Z,6.75
2023-03-20T16:25:13.340Z,5.22
2023-03-20T16:27:42.270Z,5.63
2023-03-20T16:30:16.191Z,5.60
2023-03-20T16:32:44.783Z,6.05
2023-03-20T16:35:17.535Z,6.30
2023-03-20T16:37:48.103Z,5.50
2023-03-20T16:40:18.788Z,6.10
2023-03-20T16:42:47.156Z,6.20
2023-03-20T16:45:28.437Z,5.65
2023-03-20T16:48:27.249Z,5.15
2023-03-20T16:51:15.482Z,6.22
2023-03-20T16:53:46.275Z,7.30
2023-03-20T16:56:17.000Z,6.80
2023-03-20T16:58:45.892Z,5.53
2023-03-20T17:01:18.326Z,5.40
2023-03-20T17:03:48.452Z,7.15
2023-03-20T17:06:37.026Z,5.33
2023-03-20T17:09:17.781Z,5.20
2023-03-20T17:11:47.775Z,7.03
2023-03-20T17:14:15.805Z,5.95
2023-03-20T17:16:42.667Z,6.63
2023-03-20T17:19:15.030Z,5.90
2023-03-20T17:21:42.103Z,6.03
2023-03-20T17:24:09.654Z,6.32
2023-03-20T17:26:36.364Z,7.43
2023-03-20T17:29:03.455Z,6.65
2023-03-20T17:31:32.156Z,8.53
2023-03-20T17:33:58.859Z,6.25
2023-03-20T17:36:27.233Z,6.63
2023-03-20T17:38:54.143Z,5.93
2023-03-20T17:41:21.701Z,7.35
2023-03-20T17:43:49.088Z,8.77
2023-03-20T17:46:17.984Z,8.68
2023-03-20T17:48:46.324Z,8.70
2023-03-20T17:51:12.895Z,8.48
2023-03-20T17:53:39.509Z,6.95
2023-03-20T17:56:11.496Z,7.37
2023-03-20T17:58:38.311Z,8.57
2023-03-20T18:01:06.039Z,8.63
2023-03-20T18:03:32.738Z,6.38
2023-03-20T18:06:00.875Z,6.70
2023-03-20T18:08:27.460Z,7.47
2023-03-20T18:10:54.542Z,7.95
2023-03-20T18:13:22.718Z,7.70
2023-03-20T18:15:50.811Z,7.03
2023-03-20T18:18:18.230Z,6.43
2023-03-20T18:20:45.581Z,7.73
2023-03-20T18:23:14.114Z,8.57
2023-03-20T18:25:41.460Z,7.50
2023-03-20T18:28:12.666Z,8.25
2023-03-20T18:30:40.914Z,6.40
2023-03-20T18:33:08.305Z,8.97
2023-03-20T18:35:35.688Z,8.35
2023-03-20T18:38:02.928Z,8.85
2023-03-20T18:40:32.578Z,9.50
2023-03-20T18:42:59.579Z,9.10
2023-03-20T18:45:28.438Z,9.40
2023-03-20T18:47:56.451Z,9.00
2023-03-20T18:50:25.804Z,9.55
2023-03-20T18:52:54.056Z,8.43
2023-03-20T18:55:21.852Z,10.13
2023-03-20T18:57:50.644Z,9.83
2023-03-20T19:00:20.631Z,7.55
2023-03-20T19:02:48.396Z,9.32
2023-03-20T19:05:15.342Z,9.10
2023-03-20T19:07:41.975Z,10.48
2023-03-20T19:10:23.374Z,11.87
2023-03-20T19:12:51.360Z,11.38
2023-03-20T19:15:18.080Z,12.25
2023-03-20T19:17:44.631Z,11.93
2023-03-20T19:20:26.482Z,9.85
2023-03-20T19:22:53.134Z,11.23
2023-03-20T19:25:19.728Z,10.10
2023-03-20T19:27:46.468Z,8.32
2023-03-20T19:30:25.433Z,9.93
2023-03-20T19:32:52.065Z,11.57
2023-03-20T19:38:05.399Z,9.23
2023-03-20T19:40:35.486Z,8.48
2023-03-20T19:43:03.819Z,10.52
2023-03-20T19:45:34.546Z,9.07
2023-03-20T19:48:04.187Z,9.70
2023-03-20T19:50:32.952Z,10.43
2023-03-20T19:53:00.824Z,10.25
2023-03-20T19:55:28.647Z,9.82
2023-03-20T19:57:55.403Z,11.23
2023-03-20T20:03:18.542Z,10.27
2023-03-20T20:05:45.518Z,9.35
2023-03-20T20:08:28.017Z,10.05
2023-03-20T20:10:59.091Z,10.82
2023-03-20T20:13:28.529Z,9.93
2023-03-20T20:15:55.865Z,9.90
2023-03-20T20:18:25.205Z,9.27
2023-03-20T20:21:42.712Z,10.23
2023-03-20T20:23:39.554Z,8.55
2023-03-20T20:26:06.305Z,9.70
2023-03-20T20:28:32.994Z,7.78
2023-03-20T20:30:59.937Z,10.57
2023-03-20T20:33:29.109Z,8.65
2023-03-20T20:36:27.845Z,8.88
2023-03-20T20:38:50.938Z,8.40
2023-03-20T20:41:18.292Z,10.20
2023-03-20T20:46:31.558Z,8.70
2023-03-20T20:49:09.710Z,9.20
2023-03-20T20:51:42.984Z,9.77
2023-03-20T20:54:09.586Z,8.82
2023-03-20T20:56:36.138Z,8.38
2023-03-20T20:59:02.832Z,8.88
2023-03-20T21:01:29.646Z,11.02
2023-03-20T21:03:56.238Z,7.13
2023-03-20T21:06:38.652Z,10.48
2023-03-20T21:09:11.036Z,8.75
2023-03-20T21:11:37.954Z,8.77
2023-03-20T21:14:04.703Z,10.35
2023-03-20T21:16:31.491Z,9.43
2023-03-20T21:18:58.589Z,8.93
2023-03-20T21:21:26.548Z,8.18
2023-03-20T21:23:53.465Z,10.13
2023-03-20T21:26:20.224Z,8.90
2023-03-20T21:28:46.816Z,9.37
2023-03-20T21:31:26.808Z,10.73
2023-03-20T21:33:56.056Z,8.55
2023-03-20T21:36:23.588Z,9.18
2023-03-20T21:39:07.888Z,10.45
2023-03-20T21:41:35.959Z,7.30
2023-03-20T21:44:03.589Z,12.50
2023-03-20T21:49:58.759Z,9.48
2023-03-20T21:55:25.149Z,11.23
2023-03-20T22:03:22.332Z,9.48
2023-03-20T22:06:38.532Z,7.57
2023-03-20T22:15:01.228Z,7.55
2023-03-20T22:20:33.412Z,7.35
2023-03-20T22:26:01.361Z,8.75
2023-03-20T22:45:03.695Z,8.30
2023-03-20T22:47:30.878Z,10.65
2023-03-20T22:49:57.678Z,6.73
2023-03-20T22:52:38.085Z,6.60
2023-03-20T22:55:12.347Z,8.73
2023-03-20T22:57:47.745Z,7.65
2023-03-20T23:00:24.341Z,7.30
2023-03-20T23:02:52.885Z,7.30
2023-03-20T23:05:19.602Z,9.07
2023-03-20T23:07:46.215Z,8.20
2023-03-20T23:10:13.192Z,9.35
2023-03-20T23:12:41.228Z,8.63
2023-03-20T23:15:09.380Z,8.70
2023-03-20T23:17:37.358Z,7.00
2023-03-20T23:20:11.283Z,8.05
2023-03-20T23:22:39.249Z,7.80
2023-03-20T23:25:18.271Z,7.82
2023-03-20T23:27:50.687Z,8.77
2023-03-20T23:30:17.376Z,7.75
2023-03-20T23:32:45.264Z,7.38
2023-03-20T23:35:11.809Z,8.73
2023-03-20T23:37:38.398Z,6.60
2023-03-20T23:40:06.121Z,10.80
2023-03-20T23:42:32.925Z,6.60
2023-03-20T23:45:07.170Z,7.75
2023-03-20T23:47:44.886Z,9.15
2023-03-20T23:50:20.649Z,7.35
2023-03-20T23:52:57.094Z,8.30
2023-03-20T23:55:28.017Z,6.20
2023-03-20T23:57:54.535Z,9.10
